sensor_id;sensor_type;location;lat;lon;timestamp;pressure;altitude;pressure_sealevel;temperature;humidity
61674;BME280;47573;43.832;5.974;2023-04-16T00:01:58;94769.09;;;24.60;60.15
61674;BME280;47573;43.832;5.974;2023-04-16T00:08:39;94769.09;;;24.60;59.89
61674;BME280;47573;43.832;5.974;2023-04-16T00:15:21;94756.84;;;24.62;59.46
61674;BME280;47573;43.832;5.974;2023-04-16T00:22:01;94762.81;;;24.49;59.82
61674;BME280;47573;43.832;5.974;2023-04-16T00:28:42;94759.81;;;24.51;59.91
61674;BME280;47573;43.832;5.974;2023-04-16T00:35:24;94753.53;;;24.50;60.05
61674;BME280;47573;43.832;5.974;2023-04-16T00:42:04;94752.69;;;24.45;59.63
61674;BME280;47573;43.832;5.974;2023-04-16T00:48:45;94748.31;;;24.44;59.99
61674;BME280;47573;43.832;5.974;2023-04-16T00:55:27;94716.63;;;24.38;59.65
61674;BME280;47573;43.832;5.974;2023-04-16T01:02:08;94723.16;;;24.32;59.58
61674;BME280;47573;43.832;5.974;2023-04-16T01:08:48;94726.91;;;24.21;59.70
61674;BME280;47573;43.832;5.974;2023-04-16T01:15:30;94745.97;;;24.16;59.42
61674;BME280;47573;43.832;5.974;2023-04-16T01:22:12;94743.50;;;24.14;59.53
61674;BME280;47573;43.832;5.974;2023-04-16T01:28:52;94755.56;;;24.18;58.78
61674;BME280;47573;43.832;5.974;2023-04-16T01:35:33;94754.13;;;24.11;59.29
61674;BME280;47573;43.832;5.974;2023-04-16T01:42:15;94743.75;;;24.08;59.27
61674;BME280;47573;43.832;5.974;2023-04-16T01:48:55;94747.81;;;24.05;59.36
61674;BME280;47573;43.832;5.974;2023-04-16T01:55:36;94757.84;;;24.00;59.30
61674;BME280;47573;43.832;5.974;2023-04-16T02:02:18;94751.81;;;23.97;59.40
61674;BME280;47573;43.832;5.974;2023-04-16T02:08:58;94747.97;;;23.93;59.34
61674;BME280;47573;43.832;5.974;2023-04-16T02:15:38;94732.16;;;23.90;59.35
61674;BME280;47573;43.832;5.974;2023-04-16T02:22:20;94717.91;;;23.78;59.42
61674;BME280;47573;43.832;5.974;2023-04-16T02:29:01;94719.53;;;23.79;58.96
61674;BME280;47573;43.832;5.974;2023-04-16T02:35:41;94720.59;;;23.73;58.76
61674;BME280;47573;43.832;5.974;2023-04-16T02:42:23;94711.84;;;23.71;58.63
61674;BME280;47573;43.832;5.974;2023-04-16T02:49:04;94706.94;;;23.68;58.43
61674;BME280;47573;43.832;5.974;2023-04-16T02:55:49;94713.97;;;23.64;58.18
61674;BME280;47573;43.832;5.974;2023-04-16T03:02:31;94718.84;;;23.62;57.97
61674;BME280;47573;43.832;5.974;2023-04-16T03:09:11;94729.19;;;23.55;57.47
61674;BME280;47573;43.832;5.974;2023-04-16T03:15:51;94727.53;;;23.54;57.57
61674;BME280;47573;43.832;5.974;2023-04-16T03:22:33;94723.66;;;23.45;57.04
61674;BME280;47573;43.832;5.974;2023-04-16T03:29:14;94732.88;;;23.44;56.96
61674;BME280;47573;43.832;5.974;2023-04-16T03:35:55;94732.63;;;23.46;56.88
61674;BME280;47573;43.832;5.974;2023-04-16T03:42:36;94730.13;;;23.39;56.82
61674;BME280;47573;43.832;5.974;2023-04-16T03:49:17;94734.78;;;23.44;56.76
61674;BME280;47573;43.832;5.974;2023-04-16T03:55:57;94743.19;;;23.37;56.95
61674;BME280;47573;43.832;5.974;2023-04-16T04:02:39;94729.81;;;23.36;56.92
61674;BME280;47573;43.832;5.974;2023-04-16T04:09:20;94733.38;;;23.36;56.63
61674;BME280;47573;43.832;5.974;2023-04-16T04:16:00;94742.28;;;23.32;56.78
61674;BME280;47573;43.832;5.974;2023-04-16T04:22:42;94746.59;;;23.28;56.57
61674;BME280;47573;43.832;5.974;2023-04-16T04:29:23;94746.88;;;23.26;56.75
61674;BME280;47573;43.832;5.974;2023-04-16T04:36:04;94742.00;;;23.28;56.83
61674;BME280;47573;43.832;5.974;2023-04-16T04:42:46;94747.81;;;23.37;57.99
61674;BME280;47573;43.832;5.974;2023-04-16T04:49:26;94742.66;;;23.40;58.22
61674;BME280;47573;43.832;5.974;2023-04-16T04:56:07;94760.13;;;23.44;58.84
61674;BME280;47573;43.832;5.974;2023-04-16T05:02:48;94766.13;;;23.41;59.10
61674;BME280;47573;43.832;5.974;2023-04-16T05:09:29;94771.31;;;23.48;59.01
61674;BME280;47573;43.832;5.974;2023-04-16T05:16:09;94783.06;;;23.48;59.54
61674;BME280;47573;43.832;5.974;2023-04-16T05:22:51;94780.91;;;23.50;59.64
61674;BME280;47573;43.832;5.974;2023-04-16T05:29:32;94786.91;;;23.52;59.69
61674;BME280;47573;43.832;5.974;2023-04-16T05:36:12;94788.00;;;23.51;60.25
61674;BME280;47573;43.832;5.974;2023-04-16T05:42:54;94800.03;;;23.55;59.81
61674;BME280;47573;43.832;5.974;2023-04-16T05:49:35;94805.47;;;23.55;59.99
61674;BME280;47573;43.832;5.974;2023-04-16T05:56:15;94801.75;;;23.66;60.04
61674;BME280;47573;43.832;5.974;2023-04-16T06:02:57;94798.78;;;23.68;59.84
61674;BME280;47573;43.832;5.974;2023-04-16T06:09:38;94809.41;;;23.69;59.88
61674;BME280;47573;43.832;5.974;2023-04-16T06:16:18;94808.91;;;23.72;59.93
61674;BME280;47573;43.832;5.974;2023-04-16T06:23:00;94811.63;;;23.72;60.37
61674;BME280;47573;43.832;5.974;2023-04-16T06:29:41;94808.94;;;23.77;59.98
61674;BME280;47573;43.832;5.974;2023-04-16T06:36:21;94805.13;;;23.78;60.42
61674;BME280;47573;43.832;5.974;2023-04-16T06:43:03;94804.88;;;23.80;60.13
61674;BME280;47573;43.832;5.974;2023-04-16T06:49:44;94796.97;;;23.83;59.91
61674;BME280;47573;43.832;5.974;2023-04-16T06:56:24;94787.19;;;23.87;59.82
61674;BME280;47573;43.832;5.974;2023-04-16T07:03:06;94796.75;;;23.90;60.18
61674;BME280;47573;43.832;5.974;2023-04-16T07:09:47;94785.63;;;23.96;59.80
61674;BME280;47573;43.832;5.974;2023-04-16T07:16:27;94794.38;;;23.98;59.84
61674;BME280;47573;43.832;5.974;2023-04-16T07:23:09;94795.50;;;24.03;59.56
61674;BME280;47573;43.832;5.974;2023-04-16T07:29:49;94796.13;;;24.10;59.07
61674;BME280;47573;43.832;5.974;2023-04-16T07:36:30;94805.38;;;24.09;59.38
61674;BME280;47573;43.832;5.974;2023-04-16T07:43:12;94799.19;;;24.18;59.25
61674;BME280;47573;43.832;5.974;2023-04-16T07:49:53;94800.03;;;24.24;59.38
61674;BME280;47573;43.832;5.974;2023-04-16T07:56:33;94800.06;;;24.29;58.32
61674;BME280;47573;43.832;5.974;2023-04-16T08:03:15;94806.13;;;24.36;58.66
61674;BME280;47573;43.832;5.974;2023-04-16T08:09:56;94818.13;;;24.40;58.90
61674;BME280;47573;43.832;5.974;2023-04-16T08:16:36;94811.63;;;24.46;58.02
61674;BME280;47573;43.832;5.974;2023-04-16T08:23:18;94825.31;;;24.51;58.36
61674;BME280;47573;43.832;5.974;2023-04-16T08:29:58;94821.78;;;24.55;58.45
61674;BME280;47573;43.832;5.974;2023-04-16T08:36:39;94824.84;;;24.64;59.98
61674;BME280;47573;43.832;5.974;2023-04-16T08:43:22;94828.69;;;24.68;61.58
61674;BME280;47573;43.832;5.974;2023-04-16T08:50:04;94830.53;;;24.62;62.56
61674;BME280;47573;43.832;5.974;2023-04-16T08:56:45;94829.47;;;24.63;62.26
61674;BME280;47573;43.832;5.974;2023-04-16T09:03:29;94818.31;;;24.70;61.22
61674;BME280;47573;43.832;5.974;2023-04-16T09:10:11;94819.94;;;24.71;60.70
61674;BME280;47573;43.832;5.974;2023-04-16T09:16:52;94814.50;;;24.71;60.76
61674;BME280;47573;43.832;5.974;2023-04-16T09:23:34;94809.34;;;24.74;60.71
61674;BME280;47573;43.832;5.974;2023-04-16T09:30:20;94818.94;;;24.82;60.03
61674;BME280;47573;43.832;5.974;2023-04-16T09:37:13;94810.47;;;24.84;59.25
61674;BME280;47573;43.832;5.974;2023-04-16T09:43:57;94812.63;;;24.77;59.18
61674;BME280;47573;43.832;5.974;2023-04-16T09:50:37;94804.19;;;24.78;58.65
61674;BME280;47573;43.832;5.974;2023-04-16T09:57:19;94809.66;;;24.78;58.74
61674;BME280;47573;43.832;5.974;2023-04-16T10:04:01;94817.56;;;24.80;59.03
61674;BME280;47573;43.832;5.974;2023-04-16T10:10:41;94808.59;;;24.84;58.81
61674;BME280;47573;43.832;5.974;2023-04-16T10:17:22;94792.72;;;24.81;58.60
61674;BME280;47573;43.832;5.974;2023-04-16T10:24:06;94800.38;;;24.89;58.47
61674;BME280;47573;43.832;5.974;2023-04-16T10:30:49;94793.56;;;24.92;57.92
61674;BME280;47573;43.832;5.974;2023-04-16T10:37:31;94793.84;;;24.95;58.26
61674;BME280;47573;43.832;5.974;2023-04-16T10:44:18;94784.59;;;24.96;58.10
61674;BME280;47573;43.832;5.974;2023-04-16T10:50:58;94795.00;;;24.99;58.31
61674;BME280;47573;43.832;5.974;2023-04-16T10:57:39;94791.16;;;25.00;58.02
61674;BME280;47573;43.832;5.974;2023-04-16T11:04:29;94786.78;;;25.04;57.78
61674;BME280;47573;43.832;5.974;2023-04-16T11:11:09;94767.69;;;24.99;57.75
61674;BME280;47573;43.832;5.974;2023-04-16T11:17:50;94768.22;;;25.06;57.79
61674;BME280;47573;43.832;5.974;2023-04-16T11:24:33;94761.13;;;25.05;57.50
61674;BME280;47573;43.832;5.974;2023-04-16T11:31:13;94755.66;;;25.05;57.60
61674;BME280;47573;43.832;5.974;2023-04-16T11:37:55;94749.66;;;25.08;57.83
61674;BME280;47573;43.832;5.974;2023-04-16T11:44:37;94740.34;;;25.04;57.26
61674;BME280;47573;43.832;5.974;2023-04-16T11:51:18;94725.63;;;25.10;56.53
61674;BME280;47573;43.832;5.974;2023-04-16T11:58:10;94725.63;;;25.10;57.97
61674;BME280;47573;43.832;5.974;2023-04-16T12:04:52;94710.59;;;25.13;58.04
61674;BME280;47573;43.832;5.974;2023-04-16T12:11:39;94717.72;;;25.19;56.48
61674;BME280;47573;43.832;5.974;2023-04-16T12:18:21;94714.44;;;25.22;56.97
61674;BME280;47573;43.832;5.974;2023-04-16T12:25:04;94705.44;;;25.21;56.79
61674;BME280;47573;43.832;5.974;2023-04-16T12:31:46;94702.13;;;25.24;56.70
61674;BME280;47573;43.832;5.974;2023-04-16T12:38:27;94700.22;;;25.25;57.28
61674;BME280;47573;43.832;5.974;2023-04-16T12:45:09;94695.59;;;25.25;57.36
61674;BME280;47573;43.832;5.974;2023-04-16T12:51:49;94686.28;;;25.26;57.13
61674;BME280;47573;43.832;5.974;2023-04-16T12:58:30;94680.28;;;25.24;57.32
61674;BME280;47573;43.832;5.974;2023-04-16T13:05:11;94666.09;;;25.27;57.29
61674;BME280;47573;43.832;5.974;2023-04-16T13:11:52;94665.25;;;25.27;57.39
61674;BME280;47573;43.832;5.974;2023-04-16T13:18:33;94669.09;;;25.26;57.36
61674;BME280;47573;43.832;5.974;2023-04-16T13:25:15;94658.44;;;25.34;52.45
61674;BME280;47573;43.832;5.974;2023-04-16T13:31:56;94662.28;;;25.28;50.96
61674;BME280;47573;43.832;5.974;2023-04-16T13:38:37;94660.06;;;25.25;41.37
61674;BME280;47573;43.832;5.974;2023-04-16T13:45:19;94644.25;;;25.32;49.17
61674;BME280;47573;43.832;5.974;2023-04-16T13:52:00;94644.22;;;25.27;48.59
61674;BME280;47573;43.832;5.974;2023-04-16T13:58:40;94636.03;;;25.32;48.86
61674;BME280;47573;43.832;5.974;2023-04-16T14:05:22;94631.09;;;25.29;48.48
61674;BME280;47573;43.832;5.974;2023-04-16T14:12:03;94629.47;;;25.33;45.05
61674;BME280;47573;43.832;5.974;2023-04-16T14:18:43;94621.25;;;25.33;45.49
61674;BME280;47573;43.832;5.974;2023-04-16T14:25:25;94627.28;;;25.35;45.83
61674;BME280;47573;43.832;5.974;2023-04-16T14:32:06;94619.34;;;25.29;44.55
61674;BME280;47573;43.832;5.974;2023-04-16T14:38:47;94616.34;;;25.25;39.83
61674;BME280;47573;43.832;5.974;2023-04-16T14:45:28;94603.78;;;25.24;41.44
61674;BME280;47573;43.832;5.974;2023-04-16T14:52:09;94602.69;;;25.25;40.34
61674;BME280;47573;43.832;5.974;2023-04-16T14:58:49;94603.25;;;25.27;38.08
61674;BME280;47573;43.832;5.974;2023-04-16T15:05:31;94605.41;;;25.20;40.83
61674;BME280;47573;43.832;5.974;2023-04-16T15:12:12;94605.44;;;25.25;36.40
61674;BME280;47573;43.832;5.974;2023-04-16T15:18:52;94606.50;;;25.24;40.48
61674;BME280;47573;43.832;5.974;2023-04-16T15:25:34;94595.59;;;25.14;36.54
61674;BME280;47573;43.832;5.974;2023-04-16T15:32:15;94598.31;;;25.14;36.75
61674;BME280;47573;43.832;5.974;2023-04-16T15:38:55;94604.59;;;25.25;39.34
61674;BME280;47573;43.832;5.974;2023-04-16T15:45:37;94594.22;;;25.07;39.47
61674;BME280;47573;43.832;5.974;2023-04-16T15:52:17;94598.31;;;25.19;40.75
61674;BME280;47573;43.832;5.974;2023-04-16T15:58:58;94601.06;;;25.14;42.04
61674;BME280;47573;43.832;5.974;2023-04-16T16:05:40;94596.69;;;25.03;40.73
61674;BME280;47573;43.832;5.974;2023-04-16T16:12:20;94591.78;;;25.05;39.02
61674;BME280;47573;43.832;5.974;2023-04-16T16:19:01;94593.44;;;25.01;42.12
61674;BME280;47573;43.832;5.974;2023-04-16T16:25:42;94601.06;;;24.99;39.52
61674;BME280;47573;43.832;5.974;2023-04-16T16:32:23;94606.53;;;25.04;43.03
61674;BME280;47573;43.832;5.974;2023-04-16T16:39:04;94605.44;;;25.00;43.09
61674;BME280;47573;43.832;5.974;2023-04-16T16:45:45;94636.00;;;24.92;41.64
61674;BME280;47573;43.832;5.974;2023-04-16T16:52:26;94641.41;;;24.72;43.11
61674;BME280;47573;43.832;5.974;2023-04-16T16:59:06;94643.34;;;24.77;39.00
61674;BME280;47573;43.832;5.974;2023-04-16T17:05:48;94637.59;;;24.73;37.66
61674;BME280;47573;43.832;5.974;2023-04-16T17:12:29;94655.03;;;24.67;38.39
61674;BME280;47573;43.832;5.974;2023-04-16T17:19:09;94659.69;;;24.66;39.35
61674;BME280;47573;43.832;5.974;2023-04-16T17:25:51;94658.88;;;24.66;39.50
61674;BME280;47573;43.832;5.974;2023-04-16T17:32:31;94667.03;;;24.61;39.42
61674;BME280;47573;43.832;5.974;2023-04-16T17:39:12;94675.75;;;24.58;40.46
61674;BME280;47573;43.832;5.974;2023-04-16T17:45:54;94679.56;;;24.52;39.96
61674;BME280;47573;43.832;5.974;2023-04-16T17:52:34;94680.06;;;24.39;40.42
61674;BME280;47573;43.832;5.974;2023-04-16T17:59:15;94686.09;;;24.41;41.13
61674;BME280;47573;43.832;5.974;2023-04-16T18:05:57;94698.69;;;24.57;45.82
61674;BME280;47573;43.832;5.974;2023-04-16T18:12:38;94706.34;;;24.55;46.20
61674;BME280;47573;43.832;5.974;2023-04-16T18:19:18;94715.34;;;24.60;46.03
61674;BME280;47573;43.832;5.974;2023-04-16T18:26:00;94720.56;;;24.67;47.63
61674;BME280;47573;43.832;5.974;2023-04-16T18:32:41;94728.81;;;24.77;48.16
61674;BME280;47573;43.832;5.974;2023-04-16T18:39:21;94730.47;;;24.83;49.10
61674;BME280;47573;43.832;5.974;2023-04-16T18:46:03;94746.31;;;24.86;48.45
61674;BME280;47573;43.832;5.974;2023-04-16T18:52:44;94757.53;;;24.85;47.92
61674;BME280;47573;43.832;5.974;2023-04-16T18:59:24;94761.66;;;24.97;48.66
61674;BME280;47573;43.832;5.974;2023-04-16T19:06:06;94773.13;;;24.99;48.56
61674;BME280;47573;43.832;5.974;2023-04-16T19:12:47;94785.13;;;24.98;48.78
61674;BME280;47573;43.832;5.974;2023-04-16T19:19:27;94789.81;;;25.03;48.66
61674;BME280;47573;43.832;5.974;2023-04-16T19:26:09;94791.44;;;24.99;48.81
61674;BME280;47573;43.832;5.974;2023-04-16T19:32:50;94809.19;;;25.01;48.78
61674;BME280;47573;43.832;5.974;2023-04-16T19:39:30;94810.56;;;24.99;48.70
61674;BME280;47573;43.832;5.974;2023-04-16T19:46:12;94813.56;;;24.97;49.02
61674;BME280;47573;43.832;5.974;2023-04-16T19:52:53;94821.16;;;24.95;48.94
61674;BME280;47573;43.832;5.974;2023-04-16T19:59:33;94837.00;;;24.93;49.19
61674;BME280;47573;43.832;5.974;2023-04-16T20:06:15;94838.09;;;24.92;49.10
61674;BME280;47573;43.832;5.974;2023-04-16T20:12:55;94845.97;;;24.84;49.37
61674;BME280;47573;43.832;5.974;2023-04-16T20:19:36;94840.81;;;24.87;49.32
61674;BME280;47573;43.832;5.974;2023-04-16T20:26:18;94846.25;;;24.87;49.29
61674;BME280;47573;43.832;5.974;2023-04-16T20:32:58;94840.28;;;24.90;49.33
61674;BME280;47573;43.832;5.974;2023-04-16T20:39:39;94838.09;;;24.92;49.40
61674;BME280;47573;43.832;5.974;2023-04-16T20:46:21;94835.91;;;24.89;50.51
61674;BME280;47573;43.832;5.974;2023-04-16T20:53:01;94837.81;;;24.89;50.66
61674;BME280;47573;43.832;5.974;2023-04-16T20:59:42;94839.16;;;24.86;51.21
61674;BME280;47573;43.832;5.974;2023-04-16T21:06:24;94835.66;;;24.91;51.11
61674;BME280;47573;43.832;5.974;2023-04-16T21:13:05;94838.63;;;24.89;51.08
61674;BME280;47573;43.832;5.974;2023-04-16T21:19:45;94844.63;;;24.86;51.48
61674;BME280;47573;43.832;5.974;2023-04-16T21:26:27;94833.44;;;24.83;51.03
61674;BME280;47573;43.832;5.974;2023-04-16T21:33:07;94850.63;;;24.83;51.37
61674;BME280;47573;43.832;5.974;2023-04-16T21:39:48;94847.88;;;24.83;51.54
61674;BME280;47573;43.832;5.974;2023-04-16T21:46:30;94850.06;;;24.76;51.16
61674;BME280;47573;43.832;5.974;2023-04-16T21:53:10;94852.72;;;24.71;51.31
61674;BME280;47573;43.832;5.974;2023-04-16T21:59:51;94853.25;;;24.73;50.79
61674;BME280;47573;43.832;5.974;2023-04-16T22:06:34;94844.03;;;24.74;51.03
61674;BME280;47573;43.832;5.974;2023-04-16T22:13:14;94846.13;;;24.67;51.29
61674;BME280;47573;43.832;5.974;2023-04-16T22:19:55;94850.53;;;24.73;51.41
61674;BME280;47573;43.832;5.974;2023-04-16T22:26:37;94839.84;;;24.66;51.35
61674;BME280;47573;43.832;5.974;2023-04-16T22:33:17;94842.03;;;24.64;51.66
61674;BME280;47573;43.832;5.974;2023-04-16T22:39:58;94842.03;;;24.64;51.29
61674;BME280;47573;43.832;5.974;2023-04-16T22:46:39;94851.00;;;24.60;51.79
61674;BME280;47573;43.832;5.974;2023-04-16T22:53:20;94852.66;;;24.61;51.61
61674;BME280;47573;43.832;5.974;2023-04-16T23:00:00;94851.53;;;24.57;51.85
61674;BME280;47573;43.832;5.974;2023-04-16T23:06:42;94853.72;;;24.55;51.85
61674;BME280;47573;43.832;5.974;2023-04-16T23:13:23;94860.28;;;24.59;51.76
61674;BME280;47573;43.832;5.974;2023-04-16T23:20:05;94856.47;;;24.60;51.71
61674;BME280;47573;43.832;5.974;2023-04-16T23:26:47;94861.06;;;24.54;51.71
61674;BME280;47573;43.832;5.974;2023-04-16T23:33:27;94874.44;;;24.51;52.13
61674;BME280;47573;43.832;5.974;2023-04-16T23:40:09;94872.78;;;24.50;52.17
61674;BME280;47573;43.832;5.974;2023-04-16T23:46:51;94857.53;;;24.54;52.06
61674;BME280;47573;43.832;5.974;2023-04-16T23:53:31;94867.91;;;24.57;51.88
